Time;durP1;ratioP1;P1;durP2;ratioP2;P2;SDS_P1;SDS_P2;PMS_P1;PMS_P2;Temp;Humidity;BMP_temperature;BMP_pressure;BME280_temperature;BME280_humidity;BME280_pressure;Samples;Min_cycle;Max_cycle;Signal;HPM_P1;HPM_P2
2022/12/12 00:02:23;;;;;;;5.93;5.57;;;-8.50;99.90;;;;;;5010956;28;20030;-77
2022/12/12 00:04:49;;;;;;;10.18;7.35;;;-8.50;99.90;;;;;;5006537;28;20124;-77
2022/12/12 00:07:14;;;;;;;8.43;7.60;;;-8.60;99.90;;;;;;5019426;28;20045;-77
2022/12/12 00:09:40;;;;;;;8.30;6.03;;;-9.00;99.90;;;;;;5016032;28;20046;-76
2022/12/12 00:12:06;;;;;;;13.23;8.25;;;-8.70;99.90;;;;;;4996253;28;20038;-77
2022/12/12 00:14:31;;;;;;;10.02;8.45;;;-8.50;99.90;;;;;;5016835;28;20080;-77
2022/12/12 00:16:57;;;;;;;10.27;8.65;;;-8.30;99.90;;;;;;5014105;28;20065;-76
2022/12/12 00:19:24;;;;;;;8.50;7.75;;;-8.00;99.90;;;;;;5011180;28;20060;-76
2022/12/12 00:21:50;;;;;;;7.75;6.75;;;-7.90;99.90;;;;;;5010976;28;20022;-77
2022/12/12 00:24:15;;;;;;;7.50;6.50;;;-7.90;99.90;;;;;;5010894;28;20172;-77
2022/12/12 00:26:41;;;;;;;11.98;8.55;;;-7.60;99.90;;;;;;5013700;28;20527;-77
2022/12/12 00:29:09;;;;;;;19.08;8.57;;;-7.60;99.90;;;;;;5019578;28;20046;-76
2022/12/12 00:31:35;;;;;;;8.82;8.02;;;-7.60;99.90;;;;;;5016838;28;20115;-77
2022/12/12 00:34:01;;;;;;;10.63;9.55;;;-7.50;99.90;;;;;;5016571;28;20069;-77
2022/12/12 00:36:28;;;;;;;67.93;12.48;;;-7.20;99.90;;;;;;5011397;28;20038;-77
2022/12/12 00:38:55;;;;;;;9.48;7.60;;;-7.30;99.90;;;;;;5015242;28;20028;-76
2022/12/12 00:41:21;;;;;;;28.10;8.45;;;-7.20;99.90;;;;;;5018620;28;20018;-77
2022/12/12 00:43:47;;;;;;;72.63;13.88;;;-7.20;99.90;;;;;;5017408;28;20021;-77
2022/12/12 00:46:15;;;;;;;138.52;18.70;;;-7.10;99.90;;;;;;5012341;28;20021;-77
2022/12/12 00:48:41;;;;;;;68.40;13.60;;;-7.00;99.90;;;;;;5019207;28;20045;-77
2022/12/12 00:51:09;;;;;;;183.48;21.38;;;-7.00;99.90;;;;;;5022088;28;20034;-78
2022/12/12 00:53:36;;;;;;;245.50;25.08;;;-7.20;99.90;;;;;;5018568;28;20060;-78
2022/12/12 00:56:02;;;;;;;13.80;11.35;;;-7.30;99.90;;;;;;5025450;28;20116;-77
2022/12/12 00:58:29;;;;;;;21.30;10.75;;;-7.30;99.90;;;;;;5020578;28;20025;-75
2022/12/12 01:00:55;;;;;;;11.02;8.75;;;-7.40;99.90;;;;;;5013946;28;20030;-77
2022/12/12 01:03:21;;;;;;;73.78;12.15;;;-7.40;99.90;;;;;;5025089;28;20038;-77
2022/12/12 01:05:47;;;;;;;12.18;10.75;;;-7.50;99.90;;;;;;5014795;28;20104;-76
2022/12/12 01:08:12;;;;;;;12.38;8.55;;;-7.70;99.90;;;;;;5023766;28;20753;-78
2022/12/12 01:10:38;;;;;;;24.33;10.55;;;-7.70;99.90;;;;;;5015060;28;20109;-77
2022/12/12 01:13:04;;;;;;;15.05;10.52;;;-7.70;99.90;;;;;;5026069;28;20117;-77
2022/12/12 01:15:30;;;;;;;13.45;9.35;;;-7.70;99.90;;;;;;5024612;28;20550;-77
2022/12/12 01:17:55;;;;;;;11.13;9.60;;;-7.80;99.90;;;;;;5021707;28;20030;-77
2022/12/12 01:20:25;;;;;;;17.33;10.85;;;-7.90;99.90;;;;;;5008567;28;20041;-76
2022/12/12 01:22:51;;;;;;;20.60;8.10;;;-8.00;99.90;;;;;;5010537;28;20499;-77
2022/12/12 01:25:18;;;;;;;8.80;7.93;;;-8.10;99.90;;;;;;5030198;28;20037;-77
2022/12/12 01:27:44;;;;;;;19.88;7.97;;;-8.20;99.90;;;;;;5021527;28;20037;-77
2022/12/12 01:30:13;;;;;;;12.10;8.60;;;-8.20;99.90;;;;;;5027550;28;20117;-78
2022/12/12 01:32:39;;;;;;;23.13;8.60;;;-8.30;99.90;;;;;;5031872;28;20072;-77
2022/12/12 01:35:07;;;;;;;42.90;9.55;;;-8.30;99.90;;;;;;5021147;28;20037;-77
2022/12/12 01:37:34;;;;;;;7.38;6.68;;;-8.30;99.90;;;;;;5019256;28;20125;-77
2022/12/12 01:40:00;;;;;;;8.10;7.28;;;-8.30;99.90;;;;;;5014094;28;20046;-77
2022/12/12 01:42:27;;;;;;;13.07;8.70;;;-8.40;99.90;;;;;;5010546;28;20487;-76
2022/12/12 01:44:53;;;;;;;40.70;9.73;;;-8.40;99.90;;;;;;5019271;28;20113;-77
2022/12/12 01:47:22;;;;;;;8.60;7.80;;;-8.50;99.70;;;;;;5024755;28;20151;-77
2022/12/12 01:50:05;;;;;;;8.95;6.25;;;-8.60;99.00;;;;;;5023948;28;20029;-77
2022/12/12 01:52:44;;;;;;;8.23;7.53;;;-8.70;98.90;;;;;;5010682;28;20452;-77
2022/12/12 01:55:19;;;;;;;7.38;6.18;;;-8.70;98.70;;;;;;5025585;28;20026;-77
2022/12/12 01:57:47;;;;;;;8.90;7.05;;;-8.70;98.50;;;;;;5013688;28;20121;-77
2022/12/12 02:00:14;;;;;;;9.80;7.15;;;-8.80;99.00;;;;;;5026661;28;20078;-77
2022/12/12 02:02:42;;;;;;;8.18;7.05;;;-8.80;99.30;;;;;;5018337;28;20108;-76
2022/12/12 02:05:21;;;;;;;7.80;6.85;;;-9.00;99.20;;;;;;5025928;28;20056;-77
2022/12/12 02:07:46;;;;;;;12.77;7.90;;;-9.00;99.10;;;;;;5022975;28;20064;-77
2022/12/12 02:10:12;;;;;;;8.43;6.97;;;-9.00;98.90;;;;;;5021925;28;20033;-77
2022/12/12 02:12:38;;;;;;;7.90;7.30;;;-9.00;98.90;;;;;;5020351;28;20415;-77
2022/12/12 02:15:04;;;;;;;7.07;5.85;;;-9.10;98.50;;;;;;5020003;28;20120;-77
2022/12/12 02:17:48;;;;;;;10.23;7.18;;;-9.30;98.00;;;;;;5026689;28;20056;-77
2022/12/12 02:20:13;;;;;;;7.78;6.93;;;-9.30;98.20;;;;;;5018140;28;20555;-77
2022/12/12 02:23:04;;;;;;;6.13;5.63;;;-9.40;98.50;;;;;;5018465;28;20026;-77
2022/12/12 02:26:03;;;;;;;5.85;5.45;;;-9.40;98.90;;;;;;5016231;28;20562;-77
2022/12/12 02:28:54;;;;;;;6.90;5.75;;;-9.20;99.20;;;;;;5020858;28;20025;-77
2022/12/12 02:31:49;;;;;;;8.48;7.63;;;-9.00;99.30;;;;;;5020615;28;20033;-77
2022/12/12 02:34:29;;;;;;;9.10;7.85;;;-8.60;99.90;;;;;;5017789;28;20056;-77
2022/12/12 02:37:10;;;;;;;8.77;7.88;;;-8.60;99.90;;;;;;5015809;28;20033;-77
2022/12/12 02:40:16;;;;;;;7.75;7.00;;;-8.40;99.90;;;;;;5016068;28;20073;-77
2022/12/12 02:42:52;;;;;;;18.98;6.53;;;-8.30;99.90;;;;;;5018898;28;20037;-76
2022/12/12 02:45:39;;;;;;;8.15;6.95;;;-8.10;99.40;;;;;;5013504;28;20116;-77
2022/12/12 02:48:12;;;;;;;6.90;6.28;;;-8.20;98.20;;;;;;5013848;28;20044;-77
2022/12/12 02:50:40;;;;;;;8.35;7.55;;;-8.50;97.40;;;;;;5020599;28;20018;-77
2022/12/12 02:53:07;;;;;;;6.82;6.22;;;-8.60;97.60;;;;;;5022219;28;20373;-77
2022/12/12 02:55:32;;;;;;;7.43;6.72;;;-8.40;98.70;;;;;;5012367;28;20046;-77
2022/12/12 02:57:59;;;;;;;8.73;7.75;;;-8.30;99.30;;;;;;5005878;28;20034;-77
2022/12/12 03:00:25;;;;;;;13.20;9.65;;;-8.20;98.90;;;;;;5015248;28;20044;-77
2022/12/12 03:08:56;;;;;;;9.30;7.88;;;-8.20;98.60;;;;;;5015151;28;20056;-77
2022/12/12 03:11:40;;;;;;;9.57;8.57;;;-8.10;98.70;;;;;;5005916;28;20677;-77
2022/12/12 03:14:28;;;;;;;13.95;8.50;;;-8.00;98.60;;;;;;5025406;28;20030;-77
2022/12/12 03:17:09;;;;;;;7.40;6.40;;;-7.90;98.90;;;;;;5017428;28;20028;-77
2022/12/12 03:19:58;;;;;;;9.02;8.23;;;-7.80;98.80;;;;;;5018048;28;20029;-77
2022/12/12 03:22:35;;;;;;;7.95;7.25;;;-7.80;98.80;;;;;;5017379;28;20024;-77
2022/12/12 03:25:30;;;;;;;103.13;17.50;;;-7.70;98.90;;;;;;5027959;28;20444;-77
2022/12/12 03:28:14;;;;;;;196.45;27.23;;;-7.50;99.90;;;;;;5021366;28;20087;-77
2022/12/12 03:30:47;;;;;;;37.80;14.10;;;-7.40;99.90;;;;;;5013590;28;20065;-77
2022/12/12 03:33:42;;;;;;;46.28;16.73;;;-7.30;99.90;;;;;;5021542;28;20672;-77
2022/12/12 03:36:14;;;;;;;89.35;17.70;;;-7.30;99.90;;;;;;5013667;28;20050;-77
2022/12/12 03:39:04;;;;;;;124.90;17.90;;;-7.30;99.90;;;;;;5023968;28;20049;-77
2022/12/12 03:41:39;;;;;;;66.85;16.60;;;-7.40;99.90;;;;;;5015167;28;20041;-77
2022/12/12 03:44:22;;;;;;;54.13;14.68;;;-7.40;99.90;;;;;;5019368;28;20108;-77
2022/12/12 03:46:56;;;;;;;94.85;23.33;;;-7.50;99.90;;;;;;5018281;28;20084;-77
2022/12/12 03:49:34;;;;;;;132.40;20.33;;;-7.60;99.90;;;;;;5016281;28;20024;-77
2022/12/12 03:52:06;;;;;;;312.27;35.17;;;-7.60;99.90;;;;;;5012424;28;20042;-77
2022/12/12 03:54:32;;;;;;;187.50;18.90;;;-7.50;99.90;;;;;;5012408;28;20082;-77
2022/12/12 03:57:09;;;;;;;30.58;10.65;;;-7.60;99.90;;;;;;5020693;28;20116;-77
2022/12/12 03:59:41;;;;;;;40.55;12.65;;;-7.60;99.90;;;;;;5014063;28;20037;-77
2022/12/12 04:02:15;;;;;;;82.40;15.85;;;-7.50;99.90;;;;;;5021175;28;20038;-77
2022/12/12 04:04:40;;;;;;;109.82;16.27;;;-7.60;99.90;;;;;;5016340;28;20034;-77
2022/12/12 04:07:21;;;;;;;67.28;13.05;;;-7.60;99.90;;;;;;5024119;28;20179;-77
2022/12/12 04:13:02;;;;;;;71.95;17.70;;;-7.90;99.90;;;;;;5047846;28;20121;-76
2022/12/12 04:15:58;;;;;;;13.25;10.45;;;-7.90;99.90;;;;;;5012324;28;20032;-77
2022/12/12 04:18:51;;;;;;;61.88;13.63;;;-8.10;99.90;;;;;;5013821;28;20026;-77
2022/12/12 04:24:45;;;;;;;11.52;8.70;;;-8.30;99.90;;;;;;5019644;28;20065;-76
2022/12/12 04:27:24;;;;;;;15.20;11.15;;;-8.10;99.90;;;;;;5010592;28;20038;-77
2022/12/12 04:30:08;;;;;;;18.30;11.02;;;-8.20;99.90;;;;;;5018150;28;20139;-78
2022/12/12 04:32:44;;;;;;;50.88;13.40;;;-8.20;99.90;;;;;;5015346;28;20041;-77
2022/12/12 04:35:23;;;;;;;58.05;13.15;;;-8.20;99.90;;;;;;5013535;28;20026;-77
2022/12/12 04:37:59;;;;;;;34.67;13.40;;;-8.30;99.90;;;;;;5007441;28;20036;-77
2022/12/12 04:40:30;;;;;;;12.57;8.88;;;-8.40;99.90;;;;;;5010791;28;20025;-77
2022/12/12 04:43:10;;;;;;;19.42;11.18;;;-8.50;99.90;;;;;;5013238;28;20025;-77
2022/12/12 04:45:40;;;;;;;17.95;11.88;;;-8.50;99.90;;;;;;5008891;28;20074;-77
2022/12/12 04:48:10;;;;;;;19.13;14.25;;;-8.70;99.90;;;;;;5022882;28;20037;-77
2022/12/12 04:50:38;;;;;;;17.60;9.40;;;-8.80;99.90;;;;;;5015718;28;20045;-77
2022/12/12 04:53:09;;;;;;;17.23;10.02;;;-8.80;99.90;;;;;;5016709;28;20133;-77
2022/12/12 04:55:41;;;;;;;11.98;9.88;;;-9.00;99.90;;;;;;5018839;28;20863;-77
2022/12/12 04:58:07;;;;;;;14.13;9.90;;;-9.10;99.90;;;;;;5003152;28;20037;-77
2022/12/12 05:00:45;;;;;;;10.35;8.80;;;-9.10;99.70;;;;;;5016921;28;20041;-77
2022/12/12 05:03:22;;;;;;;12.13;8.82;;;-9.20;99.30;;;;;;5004208;28;20086;-77
2022/12/12 05:05:53;;;;;;;13.18;9.68;;;-9.20;98.80;;;;;;5022359;28;20515;-78
2022/12/12 05:08:31;;;;;;;11.95;6.75;;;-9.20;98.70;;;;;;5017247;28;20157;-77
2022/12/12 05:11:00;;;;;;;11.02;9.05;;;-9.20;98.20;;;;;;5004651;28;20472;-77
2022/12/12 05:13:37;;;;;;;10.93;9.55;;;-9.20;98.20;;;;;;5013837;28;20026;-77
2022/12/12 05:16:28;;;;;;;22.40;10.13;;;-9.30;97.40;;;;;;5017518;28;20017;-78
2022/12/12 05:18:54;;;;;;;14.13;9.27;;;-9.30;97.10;;;;;;5021592;28;20022;-77
2022/12/12 05:21:43;;;;;;;11.23;10.13;;;-9.40;96.60;;;;;;5007647;28;20064;-79
2022/12/12 05:24:08;;;;;;;8.38;7.57;;;-9.60;96.10;;;;;;5021011;28;20104;-79
2022/12/12 05:26:35;;;;;;;16.58;9.00;;;-9.60;96.30;;;;;;5020223;28;20468;-78
2022/12/12 05:29:01;;;;;;;9.73;8.70;;;-9.70;96.30;;;;;;5022878;28;20055;-78
2022/12/12 05:31:27;;;;;;;50.80;11.32;;;-9.70;96.40;;;;;;5006416;28;20120;-77
2022/12/12 05:33:54;;;;;;;15.10;10.07;;;-9.70;96.30;;;;;;5019536;28;20095;-78
2022/12/12 05:36:20;;;;;;;9.57;8.52;;;-9.80;95.70;;;;;;5012745;28;20069;-77
2022/12/12 05:38:46;;;;;;;23.10;8.13;;;-9.90;95.80;;;;;;5024168;28;20843;-78
2022/12/12 05:41:12;;;;;;;8.25;7.28;;;-10.00;95.80;;;;;;5021159;28;20030;-77
2022/12/12 05:43:38;;;;;;;10.05;7.72;;;-10.00;95.80;;;;;;5017079;28;20038;-77
2022/12/12 05:46:05;;;;;;;7.38;6.38;;;-10.00;96.00;;;;;;5017094;28;20032;-77
2022/12/12 05:48:30;;;;;;;12.40;8.68;;;-9.90;96.20;;;;;;5012367;28;20396;-77
2022/12/12 05:50:56;;;;;;;12.30;8.35;;;-10.00;95.50;;;;;;5025297;28;20026;-76
2022/12/12 05:53:22;;;;;;;10.35;9.13;;;-10.30;96.10;;;;;;5001234;28;20029;-76
2022/12/12 05:55:50;;;;;;;9.50;7.13;;;-10.20;96.30;;;;;;5022971;28;20018;-77
2022/12/12 05:58:16;;;;;;;10.52;8.15;;;-10.20;95.70;;;;;;5021726;28;20033;-77
2022/12/12 06:00:41;;;;;;;7.38;6.78;;;-10.20;95.90;;;;;;5006197;28;20030;-77
2022/12/12 06:03:07;;;;;;;13.43;8.77;;;-10.30;95.40;;;;;;4995860;28;20041;-77
2022/12/12 06:05:32;;;;;;;11.73;7.75;;;-10.50;95.60;;;;;;5016711;28;20033;-76
2022/12/12 06:07:58;;;;;;;9.68;6.72;;;-10.50;95.50;;;;;;5010166;28;20046;-77
2022/12/12 06:10:24;;;;;;;8.30;7.47;;;-10.60;95.00;;;;;;5017311;28;20022;-77
2022/12/12 06:12:49;;;;;;;8.27;7.57;;;-10.60;95.20;;;;;;5018367;28;20084;-77
2022/12/12 06:15:15;;;;;;;12.38;8.40;;;-10.50;95.30;;;;;;5020538;28;20029;-77
2022/12/12 06:17:40;;;;;;;11.63;6.68;;;-10.60;95.30;;;;;;5014470;28;20037;-76
2022/12/12 06:20:07;;;;;;;8.77;6.25;;;-10.70;95.00;;;;;;5023731;28;20128;-76
2022/12/12 06:22:34;;;;;;;10.52;7.68;;;-10.90;94.20;;;;;;5012485;28;20504;-76
2022/12/12 06:25:01;;;;;;;28.70;9.82;;;-11.00;94.20;;;;;;5018410;28;20037;-77
2022/12/12 06:27:27;;;;;;;7.93;7.22;;;-11.10;94.70;;;;;;5017648;28;20044;-77
2022/12/12 06:29:53;;;;;;;9.25;7.65;;;-11.00;95.00;;;;;;5012110;28;20129;-77
2022/12/12 06:32:19;;;;;;;8.60;7.72;;;-11.00;94.80;;;;;;5022757;28;20571;-77
2022/12/12 06:34:44;;;;;;;7.32;6.63;;;-11.00;94.50;;;;;;5015401;28;20061;-77
2022/12/12 06:37:10;;;;;;;10.82;8.57;;;-11.00;94.40;;;;;;5014664;28;20038;-77
2022/12/12 06:39:36;;;;;;;8.35;7.53;;;-11.10;94.70;;;;;;5020577;28;20021;-77
2022/12/12 06:42:04;;;;;;;7.82;7.03;;;-11.00;95.20;;;;;;5020055;28;20087;-77
2022/12/12 06:44:30;;;;;;;11.05;8.70;;;-11.20;94.10;;;;;;5013201;28;20518;-77
2022/12/12 06:46:56;;;;;;;13.70;8.48;;;-11.20;94.40;;;;;;5004333;28;20037;-77
2022/12/12 06:49:22;;;;;;;8.50;6.03;;;-11.30;93.90;;;;;;5008510;28;20037;-76
2022/12/12 06:51:48;;;;;;;9.43;6.32;;;-11.30;94.10;;;;;;4990094;28;20038;-77
2022/12/12 06:54:16;;;;;;;11.90;7.75;;;-11.30;94.20;;;;;;4977065;28;20528;-77
2022/12/12 06:56:42;;;;;;;6.45;5.90;;;-11.30;95.10;;;;;;5013059;28;20065;-77
2022/12/12 06:59:10;;;;;;;6.90;5.88;;;-11.10;95.70;;;;;;5015490;28;20088;-77
2022/12/12 07:01:36;;;;;;;9.68;8.60;;;-11.10;95.80;;;;;;5007616;28;20042;-78
2022/12/12 07:04:01;;;;;;;12.25;8.13;;;-11.00;95.80;;;;;;5018216;28;20041;-78
2022/12/12 07:06:27;;;;;;;11.68;8.63;;;-11.00;95.60;;;;;;5008826;28;20041;-77
2022/12/12 07:08:53;;;;;;;7.50;6.72;;;-10.90;95.60;;;;;;5017351;28;20468;-78
2022/12/12 07:11:23;;;;;;;9.48;7.63;;;-10.90;95.70;;;;;;5017435;28;20084;-77
2022/12/12 07:13:49;;;;;;;8.23;7.32;;;-10.80;95.60;;;;;;5013523;28;20029;-78
2022/12/12 07:16:14;;;;;;;9.05;8.35;;;-11.00;94.70;;;;;;5014094;28;20038;-77
2022/12/12 07:18:40;;;;;;;11.98;8.52;;;-11.00;95.10;;;;;;5021037;28;20026;-77
2022/12/12 07:21:08;;;;;;;6.38;5.78;;;-11.10;95.30;;;;;;5013218;28;20026;-77
2022/12/12 07:23:34;;;;;;;6.88;6.20;;;-10.90;95.30;;;;;;5022405;28;20025;-77
2022/12/12 07:26:07;;;;;;;6.82;6.22;;;-10.90;94.90;;;;;;5018061;28;20080;-79
2022/12/12 07:28:33;;;;;;;10.10;8.30;;;-11.00;95.10;;;;;;5016842;28;20093;-80
2022/12/12 07:31:03;;;;;;;6.60;6.00;;;-11.10;94.50;;;;;;5019314;28;20095;-80
2022/12/12 07:33:29;;;;;;;8.32;7.63;;;-10.90;94.90;;;;;;5021156;28;20470;-80
2022/12/12 07:35:59;;;;;;;7.05;6.53;;;-11.00;94.50;;;;;;5006187;28;20087;-79
2022/12/12 07:38:25;;;;;;;5.90;5.43;;;-10.90;94.70;;;;;;5008578;28;20051;-79
2022/12/12 07:40:50;;;;;;;11.07;7.25;;;-10.90;94.60;;;;;;5020045;28;20026;-79
2022/12/12 07:43:17;;;;;;;7.45;6.72;;;-10.90;94.70;;;;;;5012167;28;20119;-79
2022/12/12 07:45:44;;;;;;;9.50;8.52;;;-10.80;94.90;;;;;;4993193;28;20094;-79
2022/12/12 07:48:10;;;;;;;6.03;5.38;;;-10.80;95.10;;;;;;5013947;28;20026;-79
2022/12/12 07:50:38;;;;;;;10.02;9.20;;;-10.80;94.70;;;;;;4996083;28;20113;-79
2022/12/12 07:53:03;;;;;;;10.63;7.32;;;-10.90;94.70;;;;;;5022148;28;20507;-79
2022/12/12 07:55:29;;;;;;;7.68;6.63;;;-11.10;94.50;;;;;;4996139;28;20069;-79
2022/12/12 07:57:56;;;;;;;10.70;6.93;;;-11.10;94.60;;;;;;5001915;28;20037;-80
2022/12/12 08:00:22;;;;;;;7.85;7.18;;;-11.20;94.50;;;;;;5016332;28;20190;-79
2022/12/12 08:02:48;;;;;;;6.72;6.18;;;-11.10;94.80;;;;;;5014699;28;20506;-78
2022/12/12 08:05:15;;;;;;;10.10;8.50;;;-10.90;95.90;;;;;;5013020;28;20026;-78
2022/12/12 08:07:41;;;;;;;7.68;7.00;;;-10.50;96.40;;;;;;5010221;28;20041;-78
2022/12/12 08:10:07;;;;;;;8.13;7.35;;;-10.40;96.00;;;;;;5003234;28;20529;-78
2022/12/12 08:12:33;;;;;;;8.00;7.38;;;-10.20;96.30;;;;;;5011948;28;20033;-79
2022/12/12 08:14:59;;;;;;;9.90;8.65;;;-10.10;96.50;;;;;;5011720;28;20041;-78
2022/12/12 08:17:25;;;;;;;11.82;8.35;;;-10.00;96.30;;;;;;5017287;28;20108;-78
2022/12/12 08:19:51;;;;;;;13.00;9.23;;;-10.00;96.20;;;;;;5018028;28;20030;-79
2022/12/12 08:22:16;;;;;;;8.18;7.13;;;-10.20;95.70;;;;;;5015851;28;20516;-79
2022/12/12 08:24:42;;;;;;;11.48;6.97;;;-10.20;95.70;;;;;;5014958;28;20088;-79
2022/12/12 08:27:08;;;;;;;7.38;6.63;;;-10.10;95.90;;;;;;5021391;28;20041;-79
2022/12/12 08:29:33;;;;;;;16.40;7.75;;;-10.00;96.30;;;;;;5020450;28;20149;-79
2022/12/12 08:31:59;;;;;;;20.40;9.50;;;-10.20;95.20;;;;;;5019124;28;20034;-80
2022/12/12 08:34:26;;;;;;;6.57;5.95;;;-10.00;95.70;;;;;;4984743;28;20038;-79
2022/12/12 08:36:53;;;;;;;16.63;8.05;;;-9.80;95.80;;;;;;5016722;28;20084;-80
2022/12/12 08:39:21;;;;;;;6.55;6.03;;;-9.60;95.70;;;;;;5023156;28;20527;-80
2022/12/12 08:41:47;;;;;;;8.65;7.85;;;-9.50;95.50;;;;;;5015776;28;20044;-81
2022/12/12 08:44:15;;;;;;;10.23;8.75;;;-9.20;95.90;;;;;;5021627;28;20033;-78
2022/12/12 08:46:41;;;;;;;9.70;7.25;;;-9.00;96.10;;;;;;5017896;28;20042;-79
2022/12/12 08:49:07;;;;;;;12.20;8.98;;;-8.80;96.00;;;;;;5013739;28;20068;-81
2022/12/12 08:51:34;;;;;;;7.30;6.53;;;-8.70;96.10;;;;;;5016219;28;20100;-80
2022/12/12 08:54:00;;;;;;;11.63;7.57;;;-8.60;96.50;;;;;;5016759;28;20063;-79
2022/12/12 08:56:26;;;;;;;8.00;6.80;;;-8.60;95.80;;;;;;5015157;28;20079;-79
2022/12/12 08:58:52;;;;;;;9.27;8.07;;;-8.60;94.90;;;;;;5008954;28;20054;-79
2022/12/12 09:01:20;;;;;;;8.65;7.65;;;-8.60;94.70;;;;;;5018778;28;20053;-79
2022/12/12 09:03:47;;;;;;;11.32;9.15;;;-8.50;94.60;;;;;;5013845;28;20486;-78
2022/12/12 09:06:14;;;;;;;9.70;8.45;;;-8.40;94.90;;;;;;5004280;28;20024;-79
2022/12/12 09:08:41;;;;;;;12.73;8.63;;;-8.20;95.20;;;;;;5013203;28;20038;-79
2022/12/12 09:11:07;;;;;;;11.25;8.63;;;-8.10;94.80;;;;;;5026716;28;20034;-79
2022/12/12 09:13:33;;;;;;;8.50;7.60;;;-8.10;94.50;;;;;;5012280;28;20029;-78
2022/12/12 09:15:59;;;;;;;8.38;7.65;;;-8.00;95.30;;;;;;5006116;28;20029;-78
2022/12/12 09:18:26;;;;;;;9.10;6.90;;;-7.90;96.20;;;;;;5010600;28;20596;-81
2022/12/12 09:20:53;;;;;;;7.50;6.90;;;-7.80;96.60;;;;;;5052624;28;20038;-80
2022/12/12 09:23:21;;;;;;;7.72;7.10;;;-7.70;97.20;;;;;;5013625;28;20385;-80
2022/12/12 09:25:47;;;;;;;9.32;8.38;;;-7.60;97.00;;;;;;5025605;28;20034;-80
2022/12/12 09:28:16;;;;;;;8.93;8.13;;;-7.50;96.90;;;;;;5023012;28;20159;-81
2022/12/12 09:30:43;;;;;;;8.38;7.32;;;-7.40;97.20;;;;;;5028568;28;20048;-79
2022/12/12 09:33:09;;;;;;;12.93;9.18;;;-7.30;97.40;;;;;;5019264;28;20132;-78
2022/12/12 09:35:35;;;;;;;7.60;6.80;;;-7.20;97.70;;;;;;5044473;28;20055;-78
2022/12/12 09:38:00;;;;;;;10.85;9.10;;;-7.10;97.60;;;;;;5025044;28;20030;-78
2022/12/12 09:40:58;;;;;;;9.73;8.75;;;-7.00;97.40;;;;;;5011308;28;20046;-80
2022/12/12 09:43:27;;;;;;;9.57;8.63;;;-6.90;97.20;;;;;;5040278;28;20029;-80
2022/12/12 09:45:54;;;;;;;9.10;8.32;;;-6.70;97.00;;;;;;5010718;28;20039;-81
2022/12/12 09:48:37;;;;;;;12.60;9.68;;;-6.60;97.00;;;;;;5016391;28;20030;-79
2022/12/12 09:51:03;;;;;;;10.52;9.27;;;-6.60;96.80;;;;;;5010655;28;20026;-79
2022/12/12 09:53:29;;;;;;;10.70;9.57;;;-6.50;96.90;;;;;;5015680;28;20053;-79
2022/12/12 09:56:01;;;;;;;8.23;7.43;;;-6.60;96.70;;;;;;5014193;28;20056;-78
2022/12/12 09:58:36;;;;;;;13.85;11.18;;;-6.60;96.60;;;;;;5012737;28;20129;-79
2022/12/12 10:01:19;;;;;;;12.73;9.43;;;-6.50;96.80;;;;;;5004089;28;20045;-78
2022/12/12 10:04:19;;;;;;;9.85;8.23;;;-6.40;97.10;;;;;;5012369;28;20025;-77
2022/12/12 10:07:22;;;;;;;7.57;6.93;;;-6.20;97.40;;;;;;5024345;28;20507;-78
2022/12/12 10:09:54;;;;;;;8.48;7.78;;;-6.30;97.20;;;;;;5014991;28;20445;-78
2022/12/12 10:12:21;;;;;;;10.27;8.95;;;-6.20;97.30;;;;;;5005932;28;20036;-77
2022/12/12 10:14:49;;;;;;;9.15;7.70;;;-6.20;97.50;;;;;;5009820;28;20050;-78
2022/12/12 10:17:42;;;;;;;12.23;8.02;;;-6.10;97.70;;;;;;5013650;28;20061;-78
2022/12/12 10:20:21;;;;;;;9.85;8.80;;;-6.00;97.70;;;;;;5010831;28;20136;-78
2022/12/12 10:22:51;;;;;;;11.05;9.95;;;-6.00;97.70;;;;;;5010600;28;20042;-78
2022/12/12 10:25:29;;;;;;;7.80;7.10;;;-5.90;97.60;;;;;;5005133;28;20040;-78
2022/12/12 10:28:12;;;;;;;10.48;8.80;;;-5.70;97.60;;;;;;5010675;28;20449;-77
2022/12/12 10:30:54;;;;;;;8.43;7.63;;;-5.60;97.40;;;;;;5016634;28;20048;-78
2022/12/12 10:33:25;;;;;;;9.32;8.50;;;-5.50;97.30;;;;;;5017360;28;20116;-78
2022/12/12 10:36:10;;;;;;;8.27;7.53;;;-5.60;97.00;;;;;;5023220;28;20051;-79
2022/12/12 10:38:47;;;;;;;10.50;8.73;;;-5.50;97.20;;;;;;5010058;28;20029;-78
2022/12/12 10:41:20;;;;;;;9.38;8.48;;;-5.50;97.30;;;;;;5019196;28;20045;-78
2022/12/12 10:44:03;;;;;;;9.60;8.07;;;-5.40;97.00;;;;;;5010150;28;20504;-78
2022/12/12 10:47:06;;;;;;;10.93;8.07;;;-5.40;97.00;;;;;;5003485;28;20068;-78
2022/12/12 10:49:32;;;;;;;10.70;9.30;;;-5.30;97.30;;;;;;4978132;28;20064;-78
2022/12/12 10:52:03;;;;;;;14.65;9.07;;;-5.30;97.00;;;;;;5045120;28;20088;-77
2022/12/12 10:54:35;;;;;;;9.60;8.70;;;-5.10;97.40;;;;;;5013550;28;20041;-78
2022/12/12 10:57:09;;;;;;;11.63;10.13;;;-5.00;97.00;;;;;;5018149;28;20026;-77
2022/12/12 10:59:44;;;;;;;10.15;9.05;;;-4.90;97.10;;;;;;5023316;28;20036;-77
2022/12/12 11:02:18;;;;;;;12.23;8.95;;;-4.90;97.30;;;;;;5009251;28;20093;-77
2022/12/12 11:05:05;;;;;;;10.07;9.10;;;-4.90;96.60;;;;;;5033499;28;20478;-80
2022/12/12 11:07:39;;;;;;;8.20;7.53;;;-4.90;96.60;;;;;;5032193;28;20437;-78
2022/12/12 11:10:23;;;;;;;10.07;7.38;;;-4.90;96.30;;;;;;5015730;28;20045;-78
2022/12/12 11:13:01;;;;;;;7.13;6.55;;;-4.90;96.20;;;;;;5010203;28;20066;-78
2022/12/12 11:15:38;;;;;;;9.73;8.85;;;-4.90;95.60;;;;;;5016417;28;20108;-78
2022/12/12 11:18:04;;;;;;;6.55;5.97;;;-4.90;95.70;;;;;;5005184;28;20030;-79
2022/12/12 11:20:30;;;;;;;10.70;6.80;;;-4.80;95.60;;;;;;5012269;28;20029;-78
2022/12/12 11:22:56;;;;;;;17.45;15.98;;;-5.00;95.00;;;;;;5004640;28;20042;-77
2022/12/12 11:25:32;;;;;;;9.40;7.60;;;-5.00;95.00;;;;;;5015168;28;20036;-80
2022/12/12 11:28:01;;;;;;;8.52;7.68;;;-5.00;95.60;;;;;;5023140;28;20376;-78
2022/12/12 11:30:36;;;;;;;11.57;6.55;;;-4.90;95.90;;;;;;5013988;28;20065;-77
2022/12/12 11:33:06;;;;;;;8.15;7.22;;;-4.90;95.90;;;;;;5012512;28;20094;-77
2022/12/12 11:35:42;;;;;;;9.80;6.63;;;-5.00;95.50;;;;;;5010755;28;20030;-77
2022/12/12 11:38:21;;;;;;;7.35;6.72;;;-4.80;95.90;;;;;;5005996;28;20092;-78
2022/12/12 11:41:00;;;;;;;13.30;11.93;;;-4.70;95.80;;;;;;5019510;28;20535;-80
2022/12/12 11:43:31;;;;;;;8.38;7.40;;;-4.80;95.70;;;;;;5005318;28;20018;-79
2022/12/12 11:46:13;;;;;;;8.82;7.90;;;-4.80;95.50;;;;;;5007959;28;20500;-79
2022/12/12 11:48:42;;;;;;;7.28;6.65;;;-4.70;95.30;;;;;;5008410;28;20029;-76
2022/12/12 11:51:08;;;;;;;7.63;6.93;;;-4.60;95.50;;;;;;5011539;28;20109;-79
2022/12/12 11:53:43;;;;;;;9.82;7.28;;;-4.60;95.30;;;;;;5008974;28;20036;-78
2022/12/12 11:56:30;;;;;;;9.48;8.20;;;-4.50;95.10;;;;;;5007084;28;20033;-77
2022/12/12 11:59:03;;;;;;;9.30;8.40;;;-4.70;95.50;;;;;;5005382;28;20030;-78
2022/12/12 12:01:50;;;;;;;7.90;7.10;;;-4.70;95.80;;;;;;5002444;28;20424;-77
2022/12/12 12:04:22;;;;;;;7.30;6.63;;;-4.60;95.70;;;;;;5011260;28;20027;-80
2022/12/12 12:07:31;;;;;;;12.10;8.32;;;-4.60;95.60;;;;;;5002775;28;20450;-78
2022/12/12 12:10:15;;;;;;;8.45;7.68;;;-4.50;95.30;;;;;;5035200;28;20036;-78
2022/12/12 12:13:03;;;;;;;7.63;6.85;;;-4.50;95.60;;;;;;5013537;28;20084;-80
2022/12/12 12:16:05;;;;;;;9.00;8.10;;;-4.40;95.50;;;;;;5008633;28;20022;-82
2022/12/12 12:19:37;;;;;;;8.90;7.13;;;-4.50;95.90;;;;;;5036913;28;20049;-89
2022/12/12 12:23:17;;;;;;;7.03;6.50;;;-4.30;96.30;;;;;;5046209;28;20136;-88
2022/12/12 12:26:46;;;;;;;10.95;8.27;;;-4.30;95.70;;;;;;5040537;28;20048;-89
2022/12/12 12:29:45;;;;;;;7.80;7.10;;;-4.20;96.20;;;;;;5048182;28;20578;-82
2022/12/12 12:32:35;;;;;;;12.63;9.73;;;-4.10;96.20;;;;;;5010864;28;20046;-83
2022/12/12 12:35:01;;;;;;;13.87;7.40;;;-4.00;96.50;;;;;;5015807;28;20030;-79
2022/12/12 12:37:54;;;;;;;10.40;8.80;;;-4.00;96.00;;;;;;5021929;28;20905;-81
2022/12/12 12:40:39;;;;;;;14.18;8.88;;;-4.00;96.10;;;;;;5014852;28;20211;-83
2022/12/12 12:43:12;;;;;;;10.73;9.50;;;-3.90;96.00;;;;;;5024352;28;20057;-83
2022/12/12 12:45:38;;;;;;;10.30;9.32;;;-3.80;96.20;;;;;;5012989;28;20562;-79
2022/12/12 12:48:18;;;;;;;12.13;11.00;;;-3.80;96.10;;;;;;5029345;28;20033;-81
2022/12/12 12:51:10;;;;;;;12.90;9.43;;;-3.90;95.90;;;;;;5017995;28;20117;-84
2022/12/12 12:53:50;;;;;;;20.52;10.10;;;-3.60;96.00;;;;;;5017471;28;20113;-79
2022/12/12 12:56:23;;;;;;;14.48;8.75;;;-3.70;95.70;;;;;;5018473;28;20090;-82
2022/12/12 12:58:52;;;;;;;12.85;10.75;;;-3.70;95.70;;;;;;5017301;28;20026;-82
2022/12/12 13:01:35;;;;;;;9.40;8.50;;;-3.50;95.60;;;;;;5054153;28;20022;-82
2022/12/12 13:04:10;;;;;;;9.70;8.70;;;-3.60;95.70;;;;;;5023173;28;20041;-83
2022/12/12 13:06:49;;;;;;;9.50;8.40;;;-3.60;95.60;;;;;;5030891;28;20033;-81
2022/12/12 13:09:36;;;;;;;10.60;9.48;;;-3.50;95.80;;;;;;5028067;28;20033;-80
2022/12/12 13:12:25;;;;;;;12.60;9.32;;;-3.50;95.70;;;;;;5023255;28;20037;-80
2022/12/12 13:15:09;;;;;;;12.57;8.80;;;-3.50;95.60;;;;;;5026870;28;20041;-87
2022/12/12 13:17:46;;;;;;;10.20;9.23;;;-3.50;95.70;;;;;;5038110;28;20049;-86
2022/12/12 13:20:19;;;;;;;10.95;9.80;;;-3.50;95.30;;;;;;5020712;28;20582;-79